sensor_id;sensor_type;location;lat;lon;timestamp;P1;durP1;ratioP1;P2;durP2;ratioP2
22780;SDS011;11557;50.884;4.322;2022-09-12T00:00:26;9.82;;;8.45;;
22780;SDS011;11557;50.884;4.322;2022-09-12T00:02:53;10.27;;;9.10;;
22780;SDS011;11557;50.884;4.322;2022-09-12T00:05:19;9.38;;;8.40;;
22780;SDS011;11557;50.884;4.322;2022-09-12T00:07:45;10.32;;;9.15;;
22780;SDS011;11557;50.884;4.322;2022-09-12T00:10:11;9.13;;;8.25;;
22780;SDS011;11557;50.884;4.322;2022-09-12T00:12:37;8.68;;;7.88;;
22780;SDS011;11557;50.884;4.322;2022-09-12T00:15:03;8.63;;;7.78;;
22780;SDS011;11557;50.884;4.322;2022-09-12T00:17:29;11.27;;;7.95;;
22780;SDS011;11557;50.884;4.322;2022-09-12T00:19:57;9.23;;;7.85;;
22780;SDS011;11557;50.884;4.322;2022-09-12T00:22:23;10.35;;;7.65;;
22780;SDS011;11557;50.884;4.322;2022-09-12T00:24:49;9.70;;;8.65;;
22780;SDS011;11557;50.884;4.322;2022-09-12T00:27:14;10.88;;;8.88;;
22780;SDS011;11557;50.884;4.322;2022-09-12T00:29:40;9.88;;;8.63;;
22780;SDS011;11557;50.884;4.322;2022-09-12T00:32:06;10.50;;;8.20;;
22780;SDS011;11557;50.884;4.322;2022-09-12T00:34:31;12.77;;;7.93;;
22780;SDS011;11557;50.884;4.322;2022-09-12T00:36:58;9.02;;;7.05;;
22780;SDS011;11557;50.884;4.322;2022-09-12T00:39:23;9.23;;;8.35;;
22780;SDS011;11557;50.884;4.322;2022-09-12T00:41:49;8.70;;;7.80;;
22780;SDS011;11557;50.884;4.322;2022-09-12T00:47:00;11.77;;;7.97;;
22780;SDS011;11557;50.884;4.322;2022-09-12T00:49:34;9.00;;;8.10;;
22780;SDS011;11557;50.884;4.322;2022-09-12T00:52:15;11.15;;;8.02;;
22780;SDS011;11557;50.884;4.322;2022-09-12T00:54:56;10.07;;;8.25;;
22780;SDS011;11557;50.884;4.322;2022-09-12T00:57:38;9.15;;;7.85;;
22780;SDS011;11557;50.884;4.322;2022-09-12T01:00:11;10.45;;;8.20;;
22780;SDS011;11557;50.884;4.322;2022-09-12T01:02:40;9.23;;;8.27;;
22780;SDS011;11557;50.884;4.322;2022-09-12T01:05:13;9.63;;;8.40;;
22780;SDS011;11557;50.884;4.322;2022-09-12T01:07:39;8.73;;;7.93;;
22780;SDS011;11557;50.884;4.322;2022-09-12T01:10:05;10.13;;;8.82;;
22780;SDS011;11557;50.884;4.322;2022-09-12T01:12:33;11.57;;;8.38;;
22780;SDS011;11557;50.884;4.322;2022-09-12T01:15:01;10.23;;;8.43;;
22780;SDS011;11557;50.884;4.322;2022-09-12T01:17:30;10.43;;;9.32;;
22780;SDS011;11557;50.884;4.322;2022-09-12T01:23:05;10.32;;;9.20;;
22780;SDS011;11557;50.884;4.322;2022-09-12T01:45:19;9.82;;;8.88;;
22780;SDS011;11557;50.884;4.322;2022-09-12T01:48:01;9.68;;;8.65;;
22780;SDS011;11557;50.884;4.322;2022-09-12T01:50:35;10.35;;;9.35;;
22780;SDS011;11557;50.884;4.322;2022-09-12T01:53:17;10.13;;;9.13;;
22780;SDS011;11557;50.884;4.322;2022-09-12T01:55:48;9.57;;;8.68;;
22780;SDS011;11557;50.884;4.322;2022-09-12T01:58:21;10.35;;;8.02;;
22780;SDS011;11557;50.884;4.322;2022-09-12T02:03:40;11.10;;;8.00;;
22780;SDS011;11557;50.884;4.322;2022-09-12T02:06:30;12.93;;;8.68;;
22780;SDS011;11557;50.884;4.322;2022-09-12T02:09:02;9.27;;;8.35;;
22780;SDS011;11557;50.884;4.322;2022-09-12T02:11:33;8.85;;;8.05;;
22780;SDS011;11557;50.884;4.322;2022-09-12T02:14:11;9.38;;;8.45;;
22780;SDS011;11557;50.884;4.322;2022-09-12T02:16:42;9.00;;;8.05;;
22780;SDS011;11557;50.884;4.322;2022-09-12T02:19:33;9.63;;;8.55;;
22780;SDS011;11557;50.884;4.322;2022-09-12T02:22:04;9.73;;;8.52;;
22780;SDS011;11557;50.884;4.322;2022-09-12T02:24:35;12.13;;;8.60;;
22780;SDS011;11557;50.884;4.322;2022-09-12T02:29:36;11.32;;;8.10;;
22780;SDS011;11557;50.884;4.322;2022-09-12T02:32:15;12.60;;;8.80;;
22780;SDS011;11557;50.884;4.322;2022-09-12T02:34:55;13.88;;;8.40;;
22780;SDS011;11557;50.884;4.322;2022-09-12T02:40:09;11.95;;;9.52;;
22780;SDS011;11557;50.884;4.322;2022-09-12T02:42:35;13.40;;;9.38;;
22780;SDS011;11557;50.884;4.322;2022-09-12T02:45:01;9.65;;;8.73;;
22780;SDS011;11557;50.884;4.322;2022-09-12T02:47:33;10.38;;;9.27;;
22780;SDS011;11557;50.884;4.322;2022-09-12T02:50:03;12.57;;;9.77;;
22780;SDS011;11557;50.884;4.322;2022-09-12T02:52:32;10.73;;;9.63;;
22780;SDS011;11557;50.884;4.322;2022-09-12T02:54:58;10.70;;;9.55;;
22780;SDS011;11557;50.884;4.322;2022-09-12T02:57:25;12.18;;;10.52;;
22780;SDS011;11557;50.884;4.322;2022-09-12T02:59:52;12.80;;;9.82;;
22780;SDS011;11557;50.884;4.322;2022-09-12T03:05:19;10.87;;;8.43;;
22780;SDS011;11557;50.884;4.322;2022-09-12T03:10:41;11.95;;;9.27;;
22780;SDS011;11557;50.884;4.322;2022-09-12T03:19:13;10.68;;;9.57;;
22780;SDS011;11557;50.884;4.322;2022-09-12T03:22:05;11.07;;;9.68;;
22780;SDS011;11557;50.884;4.322;2022-09-12T03:24:44;14.45;;;10.15;;
22780;SDS011;11557;50.884;4.322;2022-09-12T03:27:17;15.38;;;10.73;;
22780;SDS011;11557;50.884;4.322;2022-09-12T03:29:49;14.00;;;10.60;;
22780;SDS011;11557;50.884;4.322;2022-09-12T03:32:16;12.02;;;10.82;;
22780;SDS011;11557;50.884;4.322;2022-09-12T03:34:42;16.08;;;11.43;;
22780;SDS011;11557;50.884;4.322;2022-09-12T03:37:08;12.20;;;10.95;;
22780;SDS011;11557;50.884;4.322;2022-09-12T03:39:33;14.65;;;11.13;;
22780;SDS011;11557;50.884;4.322;2022-09-12T03:41:59;14.13;;;10.50;;
22780;SDS011;11557;50.884;4.322;2022-09-12T03:44:25;12.35;;;11.10;;
22780;SDS011;11557;50.884;4.322;2022-09-12T03:46:50;12.25;;;9.93;;
22780;SDS011;11557;50.884;4.322;2022-09-12T03:49:16;12.30;;;11.10;;
22780;SDS011;11557;50.884;4.322;2022-09-12T03:51:42;12.38;;;11.05;;
22780;SDS011;11557;50.884;4.322;2022-09-12T03:54:08;10.90;;;9.80;;
22780;SDS011;11557;50.884;4.322;2022-09-12T03:56:34;13.52;;;9.95;;
22780;SDS011;11557;50.884;4.322;2022-09-12T03:59:03;14.27;;;10.30;;
22780;SDS011;11557;50.884;4.322;2022-09-12T04:01:29;11.18;;;10.13;;
22780;SDS011;11557;50.884;4.322;2022-09-12T04:03:55;12.32;;;11.00;;
22780;SDS011;11557;50.884;4.322;2022-09-12T04:06:21;15.05;;;10.65;;
22780;SDS011;11557;50.884;4.322;2022-09-12T04:08:51;12.70;;;10.90;;
22780;SDS011;11557;50.884;4.322;2022-09-12T04:11:18;14.32;;;11.32;;
22780;SDS011;11557;50.884;4.322;2022-09-12T04:13:45;12.70;;;10.85;;
22780;SDS011;11557;50.884;4.322;2022-09-12T04:16:11;12.57;;;10.93;;
22780;SDS011;11557;50.884;4.322;2022-09-12T04:18:38;14.27;;;10.98;;
22780;SDS011;11557;50.884;4.322;2022-09-12T04:21:04;12.32;;;11.05;;
22780;SDS011;11557;50.884;4.322;2022-09-12T04:23:32;13.90;;;11.25;;
22780;SDS011;11557;50.884;4.322;2022-09-12T04:25:59;16.27;;;12.27;;
22780;SDS011;11557;50.884;4.322;2022-09-12T04:28:26;15.75;;;12.02;;
22780;SDS011;11557;50.884;4.322;2022-09-12T04:30:59;33.42;;;13.05;;
22780;SDS011;11557;50.884;4.322;2022-09-12T04:33:26;13.50;;;11.98;;
22780;SDS011;11557;50.884;4.322;2022-09-12T04:35:52;16.58;;;12.73;;
22780;SDS011;11557;50.884;4.322;2022-09-12T04:38:18;14.05;;;12.15;;
22780;SDS011;11557;50.884;4.322;2022-09-12T04:40:43;14.02;;;11.68;;
22780;SDS011;11557;50.884;4.322;2022-09-12T04:43:09;14.38;;;11.27;;
22780;SDS011;11557;50.884;4.322;2022-09-12T04:45:35;15.30;;;12.10;;
22780;SDS011;11557;50.884;4.322;2022-09-12T04:48:00;19.65;;;12.70;;
22780;SDS011;11557;50.884;4.322;2022-09-12T04:50:26;12.48;;;11.18;;
22780;SDS011;11557;50.884;4.322;2022-09-12T04:52:52;14.38;;;11.50;;
22780;SDS011;11557;50.884;4.322;2022-09-12T04:55:19;14.68;;;11.65;;
22780;SDS011;11557;50.884;4.322;2022-09-12T04:57:45;15.13;;;12.05;;
22780;SDS011;11557;50.884;4.322;2022-09-12T05:00:11;16.48;;;12.15;;
22780;SDS011;11557;50.884;4.322;2022-09-12T05:02:39;15.50;;;12.75;;
22780;SDS011;11557;50.884;4.322;2022-09-12T05:05:05;15.73;;;12.55;;
22780;SDS011;11557;50.884;4.322;2022-09-12T05:07:31;14.68;;;12.55;;
22780;SDS011;11557;50.884;4.322;2022-09-12T05:09:57;14.05;;;12.57;;
22780;SDS011;11557;50.884;4.322;2022-09-12T05:12:24;14.10;;;12.13;;
22780;SDS011;11557;50.884;4.322;2022-09-12T05:14:49;15.73;;;12.23;;
22780;SDS011;11557;50.884;4.322;2022-09-12T05:17:15;16.55;;;12.95;;
22780;SDS011;11557;50.884;4.322;2022-09-12T05:19:41;15.13;;;12.23;;
22780;SDS011;11557;50.884;4.322;2022-09-12T05:22:07;13.82;;;12.43;;
22780;SDS011;11557;50.884;4.322;2022-09-12T05:24:33;17.42;;;12.95;;
22780;SDS011;11557;50.884;4.322;2022-09-12T05:27:00;16.13;;;12.55;;
22780;SDS011;11557;50.884;4.322;2022-09-12T05:29:28;14.07;;;11.85;;
22780;SDS011;11557;50.884;4.322;2022-09-12T05:31:54;16.23;;;11.60;;
22780;SDS011;11557;50.884;4.322;2022-09-12T05:34:20;22.38;;;11.75;;
22780;SDS011;11557;50.884;4.322;2022-09-12T05:36:46;12.93;;;11.55;;
22780;SDS011;11557;50.884;4.322;2022-09-12T05:39:12;15.52;;;11.70;;
22780;SDS011;11557;50.884;4.322;2022-09-12T05:41:37;16.40;;;11.82;;
22780;SDS011;11557;50.884;4.322;2022-09-12T05:44:04;14.65;;;12.05;;
22780;SDS011;11557;50.884;4.322;2022-09-12T05:46:34;15.95;;;12.38;;
22780;SDS011;11557;50.884;4.322;2022-09-12T05:49:03;16.55;;;12.85;;
22780;SDS011;11557;50.884;4.322;2022-09-12T05:51:31;17.00;;;13.48;;
22780;SDS011;11557;50.884;4.322;2022-09-12T05:53:59;15.27;;;12.85;;
22780;SDS011;11557;50.884;4.322;2022-09-12T05:56:28;17.63;;;12.05;;
22780;SDS011;11557;50.884;4.322;2022-09-12T06:01:23;19.02;;;13.48;;
22780;SDS011;11557;50.884;4.322;2022-09-12T06:03:51;15.60;;;12.68;;
22780;SDS011;11557;50.884;4.322;2022-09-12T06:06:19;18.50;;;12.23;;
22780;SDS011;11557;50.884;4.322;2022-09-12T06:08:48;14.73;;;12.20;;
22780;SDS011;11557;50.884;4.322;2022-09-12T06:11:17;17.00;;;12.70;;
22780;SDS011;11557;50.884;4.322;2022-09-12T06:13:44;16.02;;;13.27;;
22780;SDS011;11557;50.884;4.322;2022-09-12T06:18:45;19.10;;;13.95;;
22780;SDS011;11557;50.884;4.322;2022-09-12T06:21:16;21.08;;;13.38;;
22780;SDS011;11557;50.884;4.322;2022-09-12T06:23:43;20.27;;;13.63;;
22780;SDS011;11557;50.884;4.322;2022-09-12T06:26:13;18.55;;;13.73;;
22780;SDS011;11557;50.884;4.322;2022-09-12T06:28:41;22.60;;;14.88;;
22780;SDS011;11557;50.884;4.322;2022-09-12T06:31:14;22.63;;;15.02;;
22780;SDS011;11557;50.884;4.322;2022-09-12T06:33:43;21.60;;;14.88;;
22780;SDS011;11557;50.884;4.322;2022-09-12T06:36:21;19.48;;;14.65;;
22780;SDS011;11557;50.884;4.322;2022-09-12T06:39:03;18.55;;;14.45;;
22780;SDS011;11557;50.884;4.322;2022-09-12T06:41:32;19.58;;;15.77;;
22780;SDS011;11557;50.884;4.322;2022-09-12T06:44:00;20.67;;;14.70;;
22780;SDS011;11557;50.884;4.322;2022-09-12T06:46:27;21.25;;;15.32;;
22780;SDS011;11557;50.884;4.322;2022-09-12T06:48:55;21.10;;;15.20;;
22780;SDS011;11557;50.884;4.322;2022-09-12T06:51:22;21.17;;;17.10;;
22780;SDS011;11557;50.884;4.322;2022-09-12T06:53:48;24.27;;;16.27;;
22780;SDS011;11557;50.884;4.322;2022-09-12T06:58:43;23.65;;;16.48;;
22780;SDS011;11557;50.884;4.322;2022-09-12T07:01:16;25.20;;;16.58;;
22780;SDS011;11557;50.884;4.322;2022-09-12T07:03:48;21.88;;;15.73;;
22780;SDS011;11557;50.884;4.322;2022-09-12T07:06:16;25.15;;;16.48;;
22780;SDS011;11557;50.884;4.322;2022-09-12T07:08:43;17.77;;;15.13;;
22780;SDS011;11557;50.884;4.322;2022-09-12T07:11:14;21.38;;;14.85;;
22780;SDS011;11557;50.884;4.322;2022-09-12T07:13:43;20.95;;;15.63;;
22780;SDS011;11557;50.884;4.322;2022-09-12T07:16:11;25.05;;;16.05;;
22780;SDS011;11557;50.884;4.322;2022-09-12T07:18:37;22.08;;;15.30;;
22780;SDS011;11557;50.884;4.322;2022-09-12T07:21:04;16.92;;;14.02;;
22780;SDS011;11557;50.884;4.322;2022-09-12T07:23:31;17.35;;;13.38;;
22780;SDS011;11557;50.884;4.322;2022-09-12T07:25:57;16.85;;;13.30;;
22780;SDS011;11557;50.884;4.322;2022-09-12T07:28:26;29.42;;;11.90;;
22780;SDS011;11557;50.884;4.322;2022-09-12T07:30:52;14.63;;;11.52;;
22780;SDS011;11557;50.884;4.322;2022-09-12T07:33:19;18.50;;;10.68;;
22780;SDS011;11557;50.884;4.322;2022-09-12T07:35:45;13.35;;;9.38;;
22780;SDS011;11557;50.884;4.322;2022-09-12T07:38:11;13.05;;;9.25;;
22780;SDS011;11557;50.884;4.322;2022-09-12T07:40:37;14.20;;;10.02;;
22780;SDS011;11557;50.884;4.322;2022-09-12T07:43:02;13.07;;;9.38;;
22780;SDS011;11557;50.884;4.322;2022-09-12T07:45:28;12.10;;;8.18;;
22780;SDS011;11557;50.884;4.322;2022-09-12T07:47:55;12.75;;;7.82;;
22780;SDS011;11557;50.884;4.322;2022-09-12T07:50:20;9.82;;;7.88;;
22780;SDS011;11557;50.884;4.322;2022-09-12T07:52:46;12.90;;;7.30;;
22780;SDS011;11557;50.884;4.322;2022-09-12T07:55:12;11.65;;;7.20;;
22780;SDS011;11557;50.884;4.322;2022-09-12T07:57:37;10.07;;;7.30;;
22780;SDS011;11557;50.884;4.322;2022-09-12T08:00:03;11.23;;;6.40;;
22780;SDS011;11557;50.884;4.322;2022-09-12T08:02:30;8.80;;;6.25;;
22780;SDS011;11557;50.884;4.322;2022-09-12T08:04:55;9.63;;;6.35;;
22780;SDS011;11557;50.884;4.322;2022-09-12T08:07:21;11.40;;;6.20;;
22780;SDS011;11557;50.884;4.322;2022-09-12T08:09:47;9.95;;;5.70;;
22780;SDS011;11557;50.884;4.322;2022-09-12T08:12:13;5.90;;;5.30;;
22780;SDS011;11557;50.884;4.322;2022-09-12T08:14:40;11.52;;;5.95;;
22780;SDS011;11557;50.884;4.322;2022-09-12T08:17:05;9.20;;;5.53;;
22780;SDS011;11557;50.884;4.322;2022-09-12T08:19:31;14.68;;;5.97;;
22780;SDS011;11557;50.884;4.322;2022-09-12T08:21:57;11.30;;;5.60;;
22780;SDS011;11557;50.884;4.322;2022-09-12T08:24:23;14.38;;;6.57;;
22780;SDS011;11557;50.884;4.322;2022-09-12T08:26:49;11.85;;;6.15;;
22780;SDS011;11557;50.884;4.322;2022-09-12T08:29:15;10.75;;;6.78;;
22780;SDS011;11557;50.884;4.322;2022-09-12T08:31:41;12.27;;;7.40;;
22780;SDS011;11557;50.884;4.322;2022-09-12T08:34:07;10.20;;;6.78;;
22780;SDS011;11557;50.884;4.322;2022-09-12T08:36:33;8.90;;;6.70;;
22780;SDS011;11557;50.884;4.322;2022-09-12T08:39:00;11.73;;;6.63;;
22780;SDS011;11557;50.884;4.322;2022-09-12T08:41:30;9.73;;;6.20;;
22780;SDS011;11557;50.884;4.322;2022-09-12T08:49:28;9.60;;;5.88;;
22780;SDS011;11557;50.884;4.322;2022-09-12T08:51:58;7.13;;;5.35;;
22780;SDS011;11557;50.884;4.322;2022-09-12T08:54:31;8.38;;;4.93;;
22780;SDS011;11557;50.884;4.322;2022-09-12T08:57:00;8.98;;;5.18;;
22780;SDS011;11557;50.884;4.322;2022-09-12T08:59:48;6.18;;;3.75;;
22780;SDS011;11557;50.884;4.322;2022-09-12T09:14:18;2.92;;;2.40;;
22780;SDS011;11557;50.884;4.322;2022-09-12T09:17:09;6.03;;;2.42;;
22780;SDS011;11557;50.884;4.322;2022-09-12T09:19:42;10.32;;;2.55;;
22780;SDS011;11557;50.884;4.322;2022-09-12T09:22:20;7.93;;;2.33;;
22780;SDS011;11557;50.884;4.322;2022-09-12T09:25:54;3.42;;;1.90;;
22780;SDS011;11557;50.884;4.322;2022-09-12T09:28:10;2.97;;;1.92;;
22780;SDS011;11557;50.884;4.322;2022-09-12T09:30:43;3.08;;;2.10;;
22780;SDS011;11557;50.884;4.322;2022-09-12T09:33:14;7.07;;;2.30;;
22780;SDS011;11557;50.884;4.322;2022-09-12T09:41:28;9.93;;;2.65;;
22780;SDS011;11557;50.884;4.322;2022-09-12T09:44:13;52.38;;;5.50;;
22780;SDS011;11557;50.884;4.322;2022-09-12T09:46:38;20.55;;;3.72;;
22780;SDS011;11557;50.884;4.322;2022-09-12T09:49:04;12.18;;;3.25;;
22780;SDS011;11557;50.884;4.322;2022-09-12T09:51:38;3.53;;;2.25;;
22780;SDS011;11557;50.884;4.322;2022-09-12T09:56:40;6.70;;;2.00;;
22780;SDS011;11557;50.884;4.322;2022-09-12T09:59:10;3.70;;;1.50;;
22780;SDS011;11557;50.884;4.322;2022-09-12T10:01:45;4.05;;;1.60;;
22780;SDS011;11557;50.884;4.322;2022-09-12T10:06:46;4.13;;;2.05;;
22780;SDS011;11557;50.884;4.322;2022-09-12T10:09:18;3.95;;;1.70;;
22780;SDS011;11557;50.884;4.322;2022-09-12T10:11:56;4.10;;;2.30;;
22780;SDS011;11557;50.884;4.322;2022-09-12T10:16:56;2.20;;;2.00;;
22780;SDS011;11557;50.884;4.322;2022-09-12T10:19:32;4.43;;;1.90;;
22780;SDS011;11557;50.884;4.322;2022-09-12T10:22:00;4.78;;;1.75;;
22780;SDS011;11557;50.884;4.322;2022-09-12T10:24:42;3.03;;;1.83;;
22780;SDS011;11557;50.884;4.322;2022-09-12T10:27:23;3.78;;;1.67;;
22780;SDS011;11557;50.884;4.322;2022-09-12T10:32:33;3.03;;;1.60;;
22780;SDS011;11557;50.884;4.322;2022-09-12T10:35:06;3.22;;;1.70;;
22780;SDS011;11557;50.884;4.322;2022-09-12T10:37:41;4.60;;;1.60;;
22780;SDS011;11557;50.884;4.322;2022-09-12T10:40:27;5.18;;;1.85;;
22780;SDS011;11557;50.884;4.322;2022-09-12T10:42:57;11.48;;;2.00;;
22780;SDS011;11557;50.884;4.322;2022-09-12T10:45:31;4.82;;;1.80;;
22780;SDS011;11557;50.884;4.322;2022-09-12T10:48:21;4.93;;;1.75;;
22780;SDS011;11557;50.884;4.322;2022-09-12T10:50:50;5.63;;;2.15;;
22780;SDS011;11557;50.884;4.322;2022-09-12T10:53:20;3.47;;;1.90;;
22780;SDS011;11557;50.884;4.322;2022-09-12T10:59:07;3.05;;;1.65;;
22780;SDS011;11557;50.884;4.322;2022-09-12T11:10:02;3.67;;;1.80;;
22780;SDS011;11557;50.884;4.322;2022-09-12T11:12:34;3.08;;;1.63;;
22780;SDS011;11557;50.884;4.322;2022-09-12T11:23:30;4.35;;;1.77;;
22780;SDS011;11557;50.884;4.322;2022-09-12T11:29:30;14.32;;;2.10;;
22780;SDS011;11557;50.884;4.322;2022-09-12T11:40:53;4.57;;;1.77;;
22780;SDS011;11557;50.884;4.322;2022-09-12T11:46:19;7.47;;;3.13;;
22780;SDS011;11557;50.884;4.322;2022-09-12T11:49:03;4.38;;;1.63;;
22780;SDS011;11557;50.884;4.322;2022-09-12T11:52:18;4.70;;;2.20;;
22780;SDS011;11557;50.884;4.322;2022-09-12T11:56:57;3.95;;;1.83;;
22780;SDS011;11557;50.884;4.322;2022-09-12T12:02:25;4.03;;;2.20;;
22780;SDS011;11557;50.884;4.322;2022-09-12T12:07:59;4.80;;;1.95;;
22780;SDS011;11557;50.884;4.322;2022-09-12T12:13:30;4.13;;;1.60;;
22780;SDS011;11557;50.884;4.322;2022-09-12T12:16:00;4.18;;;1.80;;
22780;SDS011;11557;50.884;4.322;2022-09-12T12:18:32;2.58;;;1.40;;
22780;SDS011;11557;50.884;4.322;2022-09-12T12:29:04;2.10;;;1.50;;
22780;SDS011;11557;50.884;4.322;2022-09-12T12:34:45;4.32;;;1.15;;
22780;SDS011;11557;50.884;4.322;2022-09-12T12:45:02;4.80;;;1.52;;
22780;SDS011;11557;50.884;4.322;2022-09-12T12:48:07;4.10;;;1.60;;
22780;SDS011;11557;50.884;4.322;2022-09-12T12:50:35;4.57;;;1.42;;
22780;SDS011;11557;50.884;4.322;2022-09-12T12:53:05;6.30;;;1.50;;
22780;SDS011;11557;50.884;4.322;2022-09-12T12:55:52;4.20;;;1.73;;
22780;SDS011;11557;50.884;4.322;2022-09-12T12:58:32;2.58;;;1.52;;
22780;SDS011;11557;50.884;4.322;2022-09-12T13:01:16;2.95;;;1.30;;
22780;SDS011;11557;50.884;4.322;2022-09-12T13:03:44;3.95;;;1.45;;
22780;SDS011;11557;50.884;4.322;2022-09-12T13:09:02;1.85;;;1.48;;
22780;SDS011;11557;50.884;4.322;2022-09-12T13:11:37;1.42;;;1.33;;
22780;SDS011;11557;50.884;4.322;2022-09-12T13:14:06;1.63;;;1.30;;
22780;SDS011;11557;50.884;4.322;2022-09-12T13:16:55;4.03;;;1.70;;
22780;SDS011;11557;50.884;4.322;2022-09-12T13:19:27;1.65;;;1.45;;
22780;SDS011;11557;50.884;4.322;2022-09-12T13:22:00;2.83;;;1.50;;
22780;SDS011;11557;50.884;4.322;2022-09-12T13:24:26;3.35;;;1.73;;
22780;SDS011;11557;50.884;4.322;2022-09-12T13:26:52;7.20;;;1.70;;
22780;SDS011;11557;50.884;4.322;2022-09-12T13:29:19;3.08;;;1.48;;
22780;SDS011;11557;50.884;4.322;2022-09-12T13:31:47;3.10;;;1.55;;
22780;SDS011;11557;50.884;4.322;2022-09-12T13:34:21;2.85;;;1.52;;
22780;SDS011;11557;50.884;4.322;2022-09-12T13:39:47;5.55;;;1.67;;
22780;SDS011;11557;50.884;4.322;2022-09-12T13:45:13;6.45;;;1.58;;
22780;SDS011;11557;50.884;4.322;2022-09-12T13:47:46;7.80;;;1.55;;
22780;SDS011;11557;50.884;4.322;2022-09-12T13:50:19;5.07;;;1.38;;
22780;SDS011;11557;50.884;4.322;2022-09-12T13:52:52;3.75;;;1.73;;
22780;SDS011;11557;50.884;4.322;2022-09-12T13:55:29;3.53;;;1.17;;
22780;SDS011;11557;50.884;4.322;2022-09-12T13:58:00;1.50;;;1.20;;
22780;SDS011;11557;50.884;4.322;2022-09-12T14:00:29;3.00;;;1.30;;
22780;SDS011;11557;50.884;4.322;2022-09-12T14:02:58;2.65;;;1.10;;
22780;SDS011;11557;50.884;4.322;2022-09-12T14:05:43;3.28;;;1.67;;
22780;SDS011;11557;50.884;4.322;2022-09-12T14:08:17;1.88;;;1.20;;
22780;SDS011;11557;50.884;4.322;2022-09-12T14:10:45;3.15;;;1.35;;
22780;SDS011;11557;50.884;4.322;2022-09-12T14:13:18;2.75;;;1.30;;
22780;SDS011;11557;50.884;4.322;2022-09-12T14:15:47;4.85;;;1.70;;
22780;SDS011;11557;50.884;4.322;2022-09-12T14:20:47;2.72;;;1.20;;
22780;SDS011;11557;50.884;4.322;2022-09-12T14:23:18;2.42;;;1.15;;
22780;SDS011;11557;50.884;4.322;2022-09-12T14:25:53;3.35;;;1.25;;
22780;SDS011;11557;50.884;4.322;2022-09-12T14:28:20;1.42;;;1.08;;
22780;SDS011;11557;50.884;4.322;2022-09-12T14:33:55;3.38;;;1.30;;
22780;SDS011;11557;50.884;4.322;2022-09-12T14:39:05;1.98;;;1.00;;
22780;SDS011;11557;50.884;4.322;2022-09-12T14:41:41;4.22;;;1.05;;
22780;SDS011;11557;50.884;4.322;2022-09-12T14:44:12;2.65;;;1.20;;
22780;SDS011;11557;50.884;4.322;2022-09-12T14:46:41;4.18;;;1.38;;
22780;SDS011;11557;50.884;4.322;2022-09-12T14:49:15;1.35;;;1.00;;
22780;SDS011;11557;50.884;4.322;2022-09-12T14:57:00;3.25;;;1.25;;
22780;SDS011;11557;50.884;4.322;2022-09-12T15:02:19;2.55;;;1.00;;
22780;SDS011;11557;50.884;4.322;2022-09-12T15:07:33;5.85;;;1.13;;
22780;SDS011;11557;50.884;4.322;2022-09-12T15:12:46;5.43;;;1.20;;
22780;SDS011;11557;50.884;4.322;2022-09-12T15:15:19;4.32;;;1.25;;
22780;SDS011;11557;50.884;4.322;2022-09-12T15:17:45;3.78;;;2.50;;
22780;SDS011;11557;50.884;4.322;2022-09-12T15:20:11;9.30;;;1.88;;
22780;SDS011;11557;50.884;4.322;2022-09-12T15:22:39;2.25;;;1.17;;
22780;SDS011;11557;50.884;4.322;2022-09-12T15:25:05;2.45;;;1.20;;
22780;SDS011;11557;50.884;4.322;2022-09-12T15:27:32;2.85;;;1.20;;
22780;SDS011;11557;50.884;4.322;2022-09-12T15:29:57;5.50;;;1.27;;
22780;SDS011;11557;50.884;4.322;2022-09-12T15:32:27;2.15;;;0.93;;
22780;SDS011;11557;50.884;4.322;2022-09-12T15:34:54;3.05;;;1.15;;
22780;SDS011;11557;50.884;4.322;2022-09-12T15:37:21;3.50;;;1.45;;
22780;SDS011;11557;50.884;4.322;2022-09-12T15:39:48;4.00;;;1.50;;
22780;SDS011;11557;50.884;4.322;2022-09-12T15:42:14;3.53;;;1.30;;
22780;SDS011;11557;50.884;4.322;2022-09-12T15:44:41;5.03;;;1.10;;
22780;SDS011;11557;50.884;4.322;2022-09-12T15:47:08;3.83;;;1.50;;
22780;SDS011;11557;50.884;4.322;2022-09-12T15:49:37;4.65;;;1.40;;
22780;SDS011;11557;50.884;4.322;2022-09-12T15:52:04;1.83;;;1.30;;
22780;SDS011;11557;50.884;4.322;2022-09-12T15:54:30;1.40;;;1.23;;
22780;SDS011;11557;50.884;4.322;2022-09-12T15:56:56;3.08;;;1.25;;
22780;SDS011;11557;50.884;4.322;2022-09-12T15:59:22;3.60;;;1.42;;
22780;SDS011;11557;50.884;4.322;2022-09-12T16:01:48;3.92;;;1.10;;
22780;SDS011;11557;50.884;4.322;2022-09-12T16:04:20;2.17;;;1.27;;
22780;SDS011;11557;50.884;4.322;2022-09-12T16:06:50;4.55;;;1.60;;
22780;SDS011;11557;50.884;4.322;2022-09-12T16:09:18;2.55;;;1.40;;
22780;SDS011;11557;50.884;4.322;2022-09-12T16:11:43;5.47;;;1.60;;
22780;SDS011;11557;50.884;4.322;2022-09-12T16:14:12;4.22;;;1.17;;
22780;SDS011;11557;50.884;4.322;2022-09-12T16:16:40;3.67;;;1.30;;
22780;SDS011;11557;50.884;4.322;2022-09-12T16:19:06;3.47;;;1.10;;
22780;SDS011;11557;50.884;4.322;2022-09-12T16:21:34;1.60;;;0.98;;
22780;SDS011;11557;50.884;4.322;2022-09-12T16:24:00;3.80;;;1.20;;
22780;SDS011;11557;50.884;4.322;2022-09-12T16:26:26;4.50;;;1.58;;
22780;SDS011;11557;50.884;4.322;2022-09-12T16:28:58;2.50;;;1.20;;
22780;SDS011;11557;50.884;4.322;2022-09-12T16:31:24;5.35;;;1.27;;
22780;SDS011;11557;50.884;4.322;2022-09-12T16:33:50;3.63;;;1.38;;
22780;SDS011;11557;50.884;4.322;2022-09-12T16:36:18;3.30;;;1.45;;
22780;SDS011;11557;50.884;4.322;2022-09-12T16:38:46;4.43;;;1.27;;
22780;SDS011;11557;50.884;4.322;2022-09-12T16:41:13;3.42;;;1.42;;
22780;SDS011;11557;50.884;4.322;2022-09-12T16:43:40;5.28;;;1.20;;
22780;SDS011;11557;50.884;4.322;2022-09-12T16:46:11;4.15;;;1.52;;
22780;SDS011;11557;50.884;4.322;2022-09-12T16:48:46;6.13;;;1.33;;
22780;SDS011;11557;50.884;4.322;2022-09-12T16:53:40;5.13;;;1.58;;
22780;SDS011;11557;50.884;4.322;2022-09-12T16:56:06;2.42;;;1.60;;
22780;SDS011;11557;50.884;4.322;2022-09-12T16:58:36;3.03;;;1.70;;
22780;SDS011;11557;50.884;4.322;2022-09-12T17:01:13;3.40;;;2.38;;
22780;SDS011;11557;50.884;4.322;2022-09-12T17:03:40;4.50;;;1.70;;
22780;SDS011;11557;50.884;4.322;2022-09-12T17:06:08;2.85;;;1.65;;
22780;SDS011;11557;50.884;4.322;2022-09-12T17:08:39;4.18;;;1.45;;
22780;SDS011;11557;50.884;4.322;2022-09-12T17:11:11;2.58;;;1.65;;
22780;SDS011;11557;50.884;4.322;2022-09-12T17:13:44;2.85;;;1.40;;
22780;SDS011;11557;50.884;4.322;2022-09-12T17:16:11;4.40;;;1.20;;
22780;SDS011;11557;50.884;4.322;2022-09-12T17:18:38;7.03;;;1.65;;
22780;SDS011;11557;50.884;4.322;2022-09-12T17:21:07;4.55;;;1.83;;
22780;SDS011;11557;50.884;4.322;2022-09-12T17:23:34;7.57;;;1.95;;
22780;SDS011;11557;50.884;4.322;2022-09-12T17:25:59;3.03;;;1.60;;
22780;SDS011;11557;50.884;4.322;2022-09-12T17:28:26;2.75;;;1.77;;
22780;SDS011;11557;50.884;4.322;2022-09-12T17:30:55;3.47;;;2.13;;
22780;SDS011;11557;50.884;4.322;2022-09-12T17:33:21;4.95;;;2.10;;
22780;SDS011;11557;50.884;4.322;2022-09-12T17:35:47;6.00;;;2.00;;
22780;SDS011;11557;50.884;4.322;2022-09-12T17:38:14;5.28;;;2.20;;
22780;SDS011;11557;50.884;4.322;2022-09-12T17:40:40;4.75;;;2.00;;
22780;SDS011;11557;50.884;4.322;2022-09-12T17:43:06;4.50;;;2.28;;
22780;SDS011;11557;50.884;4.322;2022-09-12T17:45:33;6.55;;;2.10;;
22780;SDS011;11557;50.884;4.322;2022-09-12T17:47:59;4.55;;;2.30;;
22780;SDS011;11557;50.884;4.322;2022-09-12T17:50:25;3.83;;;1.88;;
22780;SDS011;11557;50.884;4.322;2022-09-12T17:52:52;3.42;;;2.25;;
22780;SDS011;11557;50.884;4.322;2022-09-12T17:55:19;2.95;;;2.15;;
22780;SDS011;11557;50.884;4.322;2022-09-12T17:57:45;3.03;;;1.95;;